createdAt,value
2018-02-13T00:00:08.534Z,2.14
2018-02-13T00:01:08.522Z,2.11
2018-02-13T00:02:08.511Z,2.11
2018-02-13T00:03:08.505Z,2.18
2018-02-13T00:04:08.493Z,2.28
2018-02-13T00:05:08.482Z,2.22
2018-02-13T00:06:08.473Z,2.26
2018-02-13T00:07:08.466Z,2.18
2018-02-13T00:08:08.456Z,2.18
2018-02-13T00:09:08.444Z,2.26
2018-02-13T00:10:08.437Z,2.28
2018-02-13T00:11:08.427Z,2.22
2018-02-13T00:12:08.417Z,2.31
2018-02-13T00:13:08.459Z,2.25
2018-02-13T00:14:08.405Z,2.18
2018-02-13T00:15:08.407Z,2.17
2018-02-13T00:16:08.381Z,2.26
2018-02-13T00:17:08.370Z,2.22
2018-02-13T00:18:08.368Z,2.24
2018-02-13T00:19:08.358Z,2.15
2018-02-13T00:20:08.343Z,2.10
2018-02-13T00:21:08.334Z,2.13
2018-02-13T00:22:08.374Z,2.13
2018-02-13T00:23:08.316Z,2.20
2018-02-13T00:24:08.307Z,2.26
2018-02-13T00:25:08.296Z,2.11
2018-02-13T00:26:08.289Z,2.26
2018-02-13T00:27:08.279Z,2.22
2018-02-13T00:28:08.270Z,2.10
2018-02-13T00:29:08.298Z,2.10
2018-02-13T00:30:08.258Z,2.24
2018-02-13T00:31:08.241Z,2.24
2018-02-13T00:32:08.269Z,2.17
2018-02-13T00:33:08.222Z,2.24
2018-02-13T00:34:08.212Z,2.25
2018-02-13T00:35:08.203Z,2.29
2018-02-13T00:36:08.193Z,2.22
2018-02-13T00:37:08.186Z,2.24
2018-02-13T00:38:08.175Z,2.24
2018-02-13T00:39:08.165Z,2.24
2018-02-13T00:40:08.162Z,2.35
2018-02-13T00:41:08.147Z,2.32
2018-02-13T00:42:08.142Z,2.36
2018-02-13T00:43:08.129Z,2.29
2018-02-13T00:44:08.122Z,2.28
2018-02-13T00:45:08.109Z,2.32
2018-02-13T00:46:08.100Z,2.36
2018-02-13T00:47:08.099Z,2.31
2018-02-13T00:48:08.086Z,2.36
2018-02-13T00:49:08.074Z,2.36
2018-02-13T00:50:08.065Z,2.42
2018-02-13T00:51:08.056Z,2.43
2018-02-13T00:52:08.050Z,2.42
2018-02-13T00:53:08.038Z,2.33
2018-02-13T00:54:08.031Z,2.32
2018-02-13T00:55:08.019Z,2.26
2018-02-13T00:56:08.020Z,2.35
2018-02-13T00:57:08.007Z,2.24
2018-02-13T00:58:07.992Z,2.36
2018-02-13T00:59:07.982Z,2.35
2018-02-13T01:00:07.975Z,2.25
2018-02-13T01:01:07.964Z,2.24
2018-02-13T01:02:07.956Z,2.28
2018-02-13T01:03:07.947Z,2.22
2018-02-13T01:04:07.940Z,2.28
2018-02-13T01:05:07.928Z,2.20
2018-02-13T01:06:07.918Z,2.20
2018-02-13T01:07:07.910Z,2.13
2018-02-13T01:08:07.902Z,2.08
2018-02-13T01:09:07.894Z,2.08
2018-02-13T01:10:07.883Z,2.08
2018-02-13T01:11:07.874Z,2.08
2018-02-13T01:12:07.865Z,2.15
2018-02-13T01:13:07.853Z,2.11
2018-02-13T01:14:07.845Z,2.14
2018-02-13T01:15:07.837Z,2.13
2018-02-13T01:16:07.829Z,2.11
2018-02-13T01:17:07.818Z,2.11
2018-02-13T01:18:07.808Z,2.10
2018-02-13T01:19:07.799Z,2.07
2018-02-13T01:20:07.789Z,2.08
2018-02-13T01:21:07.780Z,2.15
2018-02-13T01:22:07.771Z,2.06
2018-02-13T01:23:07.761Z,2.04
2018-02-13T01:24:07.752Z,1.97
2018-02-13T01:25:07.747Z,2.04
2018-02-13T01:26:07.735Z,1.88
2018-02-13T01:27:07.724Z,1.88
2018-02-13T01:28:07.736Z,1.87
2018-02-13T01:29:07.705Z,1.84
2018-02-13T01:30:07.694Z,1.89
2018-02-13T01:31:07.687Z,1.88
2018-02-13T01:32:07.677Z,1.87
2018-02-13T01:33:07.666Z,1.81
2018-02-13T01:34:07.657Z,1.88
2018-02-13T01:35:07.648Z,1.88
2018-02-13T01:36:07.642Z,1.89
2018-02-13T01:37:07.633Z,1.85
2018-02-13T01:38:07.619Z,1.73
2018-02-13T01:39:07.610Z,1.87
2018-02-13T01:40:07.601Z,1.81
2018-02-13T01:41:07.591Z,1.89
2018-02-13T01:42:07.580Z,1.77
2018-02-13T01:43:07.574Z,1.68
2018-02-13T01:44:07.563Z,1.74
2018-02-13T01:45:07.552Z,1.71
2018-02-13T01:46:07.543Z,1.84
2018-02-13T01:47:07.534Z,1.84
2018-02-13T01:48:07.523Z,1.81
2018-02-13T01:49:07.516Z,1.85
2018-02-13T01:50:07.504Z,1.71
2018-02-13T01:51:07.495Z,1.80
2018-02-13T01:52:07.485Z,1.78
2018-02-13T01:53:07.475Z,1.80
2018-02-13T01:54:07.465Z,1.84
2018-02-13T01:55:07.459Z,1.92
2018-02-13T01:56:07.448Z,1.88
2018-02-13T01:57:07.435Z,1.88
2018-02-13T01:58:07.426Z,1.84
2018-02-13T01:59:07.417Z,1.91
2018-02-13T02:00:07.413Z,1.88
2018-02-13T02:01:07.412Z,1.81
2018-02-13T02:02:07.389Z,1.89
2018-02-13T02:03:07.379Z,1.89
2018-02-13T02:04:07.383Z,1.95
2018-02-13T02:05:07.362Z,1.95
2018-02-13T02:06:07.351Z,1.94
2018-02-13T02:07:07.344Z,2.02
2018-02-13T02:08:07.333Z,2.04
2018-02-13T02:09:07.322Z,1.97
2018-02-13T02:10:07.313Z,1.97
2018-02-13T02:11:07.309Z,1.94
2018-02-13T02:12:07.300Z,2.02
2018-02-13T02:13:07.285Z,1.84
2018-02-13T02:14:07.275Z,1.92
2018-02-13T02:15:07.268Z,1.85
2018-02-13T02:16:07.261Z,1.91
2018-02-13T02:17:07.250Z,1.89
2018-02-13T02:18:07.241Z,1.94
2018-02-13T02:19:07.227Z,2.02
2018-02-13T02:20:07.219Z,1.95
2018-02-13T02:21:07.208Z,1.97
2018-02-13T02:22:07.199Z,2.00
2018-02-13T02:23:07.190Z,1.99
2018-02-13T02:24:07.185Z,2.00
2018-02-13T02:25:07.173Z,2.04
2018-02-13T02:26:07.163Z,1.97
2018-02-13T02:27:07.152Z,2.04
2018-02-13T02:28:07.143Z,2.08
2018-02-13T02:29:07.133Z,2.00
2018-02-13T02:30:07.130Z,1.95
2018-02-13T02:31:07.114Z,2.07
2018-02-13T02:32:07.107Z,1.97
2018-02-13T02:33:07.095Z,2.04
2018-02-13T02:34:07.095Z,1.99
2018-02-13T02:35:07.081Z,1.88
2018-02-13T02:36:07.075Z,1.97
2018-02-13T02:37:07.061Z,1.97
2018-02-13T02:38:07.050Z,1.92
2018-02-13T02:39:07.053Z,1.89
2018-02-13T02:40:07.035Z,1.89
2018-02-13T02:41:07.019Z,1.85
2018-02-13T02:42:07.012Z,1.77
2018-02-13T02:43:07.000Z,1.80
2018-02-13T02:44:06.994Z,1.89
2018-02-13T02:45:06.982Z,1.95
2018-02-13T02:46:06.976Z,1.95
2018-02-13T02:47:06.964Z,2.00
2018-02-13T02:48:06.954Z,1.95
2018-02-13T02:49:06.944Z,1.95
2018-02-13T02:50:06.934Z,1.95
2018-02-13T02:51:06.926Z,2.04
2018-02-13T02:52:06.914Z,2.07
2018-02-13T02:53:06.907Z,2.04
2018-02-13T02:54:06.899Z,2.14
2018-02-13T02:55:06.886Z,2.15
2018-02-13T02:56:06.878Z,2.10
2018-02-13T02:57:06.868Z,2.13
2018-02-13T02:58:06.859Z,2.10
2018-02-13T02:59:06.850Z,2.11
2018-02-13T03:00:06.842Z,2.15
2018-02-13T03:01:06.833Z,2.10
2018-02-13T03:02:06.821Z,2.28
2018-02-13T03:03:06.816Z,2.17
2018-02-13T03:04:06.803Z,2.18
2018-02-13T03:05:06.794Z,2.10
2018-02-13T03:06:06.785Z,2.11
2018-02-13T03:07:06.778Z,2.18
2018-02-13T03:08:06.770Z,2.26
2018-02-13T03:09:06.756Z,2.22
2018-02-13T03:10:06.747Z,2.20
2018-02-13T03:11:06.738Z,2.13
2018-02-13T03:12:06.736Z,2.15
2018-02-13T03:13:06.747Z,2.26
2018-02-13T03:14:06.712Z,2.25
2018-02-13T03:15:06.701Z,2.20
2018-02-13T03:16:06.694Z,2.24
2018-02-13T03:17:06.683Z,2.17
2018-02-13T03:18:06.673Z,2.11
2018-02-13T03:19:06.664Z,2.13
2018-02-13T03:20:06.671Z,2.20
2018-02-13T03:21:07.216Z,2.10
2018-02-13T03:22:07.216Z,2.17
2018-02-13T03:23:06.628Z,2.22
2018-02-13T03:24:06.619Z,2.11
2018-02-13T03:25:06.612Z,2.11
2018-02-13T03:26:06.604Z,2.24
2018-02-13T03:27:06.590Z,2.18
2018-02-13T03:28:06.582Z,2.11
2018-02-13T03:29:06.574Z,2.08
2018-02-13T03:30:06.564Z,2.26
2018-02-13T03:31:06.559Z,2.11
2018-02-13T03:32:06.560Z,2.11
2018-02-13T03:33:06.534Z,2.13
2018-02-13T03:34:06.529Z,2.20
2018-02-13T03:35:06.517Z,2.24
2018-02-13T03:36:06.507Z,2.24
2018-02-13T03:37:06.501Z,2.22
2018-02-13T03:38:06.490Z,2.18
2018-02-13T03:39:06.481Z,2.24
2018-02-13T03:40:06.471Z,2.17
2018-02-13T03:41:06.461Z,2.17
2018-02-13T03:42:06.454Z,2.20
2018-02-13T03:43:06.444Z,2.22
2018-02-13T03:44:06.436Z,2.08
2018-02-13T03:45:06.426Z,2.22
2018-02-13T03:46:06.416Z,2.11
2018-02-13T03:47:06.412Z,2.04
2018-02-13T03:48:06.398Z,2.06
2018-02-13T03:49:06.386Z,2.11
2018-02-13T03:50:06.378Z,2.13
2018-02-13T03:51:06.369Z,2.14
2018-02-13T03:52:06.360Z,2.11
2018-02-13T03:53:06.349Z,2.13
2018-02-13T03:54:06.347Z,2.06
2018-02-13T03:55:06.332Z,2.10
2018-02-13T03:56:06.323Z,2.08
2018-02-13T03:57:06.312Z,2.10
2018-02-13T03:58:06.304Z,2.10
2018-02-13T03:59:06.298Z,2.10
2018-02-13T04:00:06.289Z,2.07
2018-02-13T04:01:06.277Z,2.14
2018-02-13T04:02:06.265Z,2.11
2018-02-13T04:03:06.257Z,2.06
2018-02-13T04:04:06.248Z,2.08
2018-02-13T04:05:06.240Z,2.13
2018-02-13T04:06:06.228Z,2.08
2018-02-13T04:07:06.221Z,2.17
2018-02-13T04:08:06.211Z,2.06
2018-02-13T04:09:06.203Z,2.13
2018-02-13T04:10:06.191Z,2.18
2018-02-13T04:11:06.182Z,2.13
2018-02-13T04:12:06.174Z,2.06
2018-02-13T04:13:06.163Z,2.11
2018-02-13T04:14:06.152Z,2.10
2018-02-13T04:15:06.154Z,2.15
2018-02-13T04:16:06.134Z,2.11
2018-02-13T04:17:06.126Z,2.10
2018-02-13T04:18:33.739Z,2.13
2018-02-13T04:19:06.122Z,2.02
2018-02-13T04:20:06.097Z,2.11
2018-02-13T04:21:06.087Z,2.06
2018-02-13T04:22:06.078Z,2.02
2018-02-13T04:23:06.070Z,2.02
2018-02-13T04:24:06.060Z,2.04
2018-02-13T04:25:06.058Z,2.11
2018-02-13T04:26:06.043Z,2.02
2018-02-13T04:27:06.083Z,2.10
2018-02-13T04:28:06.021Z,2.11
2018-02-13T04:29:06.012Z,2.13
2018-02-13T04:30:06.003Z,2.11
2018-02-13T04:31:05.994Z,2.11
2018-02-13T04:32:05.989Z,2.10
2018-02-13T04:33:05.974Z,2.07
2018-02-13T04:34:05.968Z,2.06
2018-02-13T04:35:05.954Z,2.14
2018-02-13T04:36:05.947Z,2.10
2018-02-13T04:37:05.935Z,2.13
2018-02-13T04:38:05.934Z,2.10
2018-02-13T04:39:05.923Z,2.06
2018-02-13T04:40:05.908Z,2.22
2018-02-13T04:41:05.898Z,2.22
2018-02-13T04:42:05.890Z,2.22
2018-02-13T04:43:05.879Z,2.18
2018-02-13T04:44:05.869Z,2.20
2018-02-13T04:45:05.863Z,2.24
2018-02-13T04:46:05.851Z,2.24
2018-02-13T04:47:05.843Z,2.29
2018-02-13T04:48:05.833Z,2.28
2018-02-13T04:49:05.823Z,2.36
2018-02-13T04:50:05.820Z,2.43
2018-02-13T04:51:05.804Z,2.31
2018-02-13T04:52:05.795Z,2.31
2018-02-13T04:53:05.786Z,2.38
2018-02-13T04:54:05.776Z,2.33
2018-02-13T04:55:05.767Z,2.42
2018-02-13T04:56:05.759Z,2.33
2018-02-13T04:57:05.749Z,2.39
2018-02-13T04:58:05.742Z,2.33
2018-02-13T04:59:05.732Z,2.39
2018-02-13T05:00:05.722Z,2.43
2018-02-13T05:01:05.716Z,2.46
2018-02-13T05:02:05.703Z,2.44
2018-02-13T05:03:05.695Z,2.44
2018-02-13T05:04:05.771Z,2.39
2018-02-13T05:05:05.676Z,2.49
2018-02-13T05:06:05.668Z,2.50
2018-02-13T05:07:05.657Z,2.43
2018-02-13T05:08:05.650Z,2.49
2018-02-13T05:09:05.639Z,2.44
2018-02-13T05:10:05.633Z,2.47
2018-02-13T05:11:05.621Z,2.44
2018-02-13T05:12:05.615Z,2.46
2018-02-13T05:13:05.603Z,2.53
2018-02-13T05:14:05.598Z,2.49
2018-02-13T05:15:05.586Z,2.57
2018-02-13T05:16:05.578Z,2.47
2018-02-13T05:17:05.566Z,2.53
2018-02-13T05:18:05.560Z,2.56
2018-02-13T05:19:05.554Z,2.47
2018-02-13T05:20:05.541Z,2.49
2018-02-13T05:21:05.535Z,2.49
2018-02-13T05:22:05.524Z,2.43
2018-02-13T05:23:05.514Z,2.57
2018-02-13T05:24:05.505Z,2.50
2018-02-13T05:25:05.497Z,2.49
2018-02-13T05:26:05.495Z,2.50
2018-02-13T05:27:05.479Z,2.51
2018-02-13T05:28:05.469Z,2.50
2018-02-13T05:29:05.458Z,2.51
2018-02-13T05:30:05.449Z,2.49
2018-02-13T05:31:05.441Z,2.50
2018-02-13T05:32:05.433Z,2.50
2018-02-13T05:33:05.424Z,2.60
2018-02-13T05:34:05.416Z,2.47
2018-02-13T05:35:05.405Z,2.47
2018-02-13T05:36:05.397Z,2.51
2018-02-13T05:37:05.396Z,2.43
2018-02-13T05:38:05.379Z,2.49
2018-02-13T05:39:05.370Z,2.46
2018-02-13T05:40:05.361Z,2.47
2018-02-13T05:41:05.355Z,2.49
2018-02-13T05:42:05.343Z,2.56
2018-02-13T05:43:05.334Z,2.47
2018-02-13T05:44:05.326Z,2.39
2018-02-13T05:45:05.315Z,2.53
2018-02-13T05:46:05.306Z,2.51
2018-02-13T05:47:05.297Z,2.57
2018-02-13T05:48:05.289Z,2.47
2018-02-13T05:49:05.280Z,2.38
2018-02-13T05:50:05.310Z,2.22
2018-02-13T05:51:05.261Z,2.24
2018-02-13T05:52:05.252Z,2.25
2018-02-13T05:53:05.249Z,2.26
2018-02-13T05:54:05.242Z,2.14
2018-02-13T05:55:05.223Z,2.07
2018-02-13T05:56:05.226Z,2.10
2018-02-13T05:57:05.206Z,2.08
2018-02-13T05:58:05.201Z,2.14
2018-02-13T05:59:06.154Z,2.14
2018-02-13T06:00:06.431Z,2.14
2018-02-13T06:01:06.175Z,2.14
2018-02-13T06:02:06.403Z,2.15
2018-02-13T06:03:05.151Z,2.26
2018-02-13T06:04:05.142Z,2.26
2018-02-13T06:05:05.133Z,2.18
2018-02-13T06:06:05.122Z,2.20
2018-02-13T06:07:05.113Z,2.24
2018-02-13T06:08:05.104Z,2.18
2018-02-13T06:09:05.092Z,2.08
2018-02-13T06:10:05.087Z,2.11
2018-02-13T06:11:05.075Z,2.14
2018-02-13T06:12:05.066Z,2.08
2018-02-13T06:13:05.058Z,2.07
2018-02-13T06:14:05.046Z,2.17
2018-02-13T06:15:05.037Z,2.26
2018-02-13T06:16:05.027Z,2.25
2018-02-13T06:17:05.016Z,2.26
2018-02-13T06:18:05.011Z,2.25
2018-02-13T06:19:04.997Z,2.25
2018-02-13T06:20:04.989Z,2.24
2018-02-13T06:21:04.979Z,2.26
2018-02-13T06:22:04.974Z,2.18
2018-02-13T06:23:04.963Z,2.29
2018-02-13T06:24:04.951Z,2.15
2018-02-13T06:25:04.944Z,2.20
2018-02-13T06:26:04.935Z,2.14
2018-02-13T06:27:04.926Z,2.10
2018-02-13T06:28:04.918Z,2.08
2018-02-13T06:29:04.904Z,2.10
2018-02-13T06:30:04.894Z,2.06
2018-02-13T06:31:04.886Z,2.18
2018-02-13T06:32:04.876Z,2.11
2018-02-13T06:33:04.868Z,2.08
2018-02-13T06:34:04.857Z,2.11
2018-02-13T06:35:04.848Z,2.11
2018-02-13T06:36:04.838Z,2.11
2018-02-13T06:37:04.828Z,2.11
2018-02-13T06:38:04.820Z,2.07
2018-02-13T06:39:04.810Z,2.15
2018-02-13T06:40:04.802Z,2.07
2018-02-13T06:41:04.791Z,2.15
2018-02-13T06:42:04.795Z,2.08
2018-02-13T06:43:04.773Z,2.10
2018-02-13T06:44:04.772Z,2.14
2018-02-13T06:45:04.752Z,2.10
2018-02-13T06:46:04.746Z,2.10
2018-02-13T06:47:04.733Z,2.08
2018-02-13T06:48:04.724Z,2.07
2018-02-13T06:49:04.715Z,2.08
2018-02-13T06:50:04.755Z,2.15
2018-02-13T06:51:04.702Z,2.10
2018-02-13T06:52:04.686Z,2.18
2018-02-13T06:53:04.676Z,2.17
2018-02-13T06:54:04.667Z,2.26
2018-02-13T06:55:04.658Z,2.18
2018-02-13T06:56:04.650Z,2.20
2018-02-13T06:57:04.638Z,2.08
2018-02-13T06:58:04.631Z,2.08
2018-02-13T06:59:04.624Z,2.13
2018-02-13T07:00:04.611Z,2.06
2018-02-13T07:01:04.601Z,2.04
2018-02-13T07:02:04.598Z,2.06
2018-02-13T07:03:04.583Z,1.97
2018-02-13T07:04:04.635Z,1.97
2018-02-13T07:05:04.563Z,2.02
2018-02-13T07:06:04.566Z,2.06
2018-02-13T07:07:04.544Z,2.07
2018-02-13T07:08:04.537Z,2.04
2018-02-13T07:09:04.524Z,2.00
2018-02-13T07:10:04.515Z,1.94
2018-02-13T07:11:04.509Z,1.99
2018-02-13T07:12:04.498Z,2.06
2018-02-13T07:13:04.488Z,1.99
2018-02-13T07:14:04.479Z,1.99
2018-02-13T07:15:04.469Z,2.06
2018-02-13T07:16:04.465Z,2.07
2018-02-13T07:17:04.449Z,2.04
2018-02-13T07:18:04.440Z,2.04
2018-02-13T07:19:04.436Z,2.02
2018-02-13T07:20:04.426Z,2.04
2018-02-13T07:21:04.411Z,2.07
2018-02-13T07:22:04.401Z,2.02
2018-02-13T07:23:04.390Z,1.99
2018-02-13T07:24:04.383Z,2.10
2018-02-13T07:25:04.371Z,2.02
2018-02-13T07:26:04.374Z,2.04
2018-02-13T07:27:04.355Z,2.04
2018-02-13T07:28:04.343Z,2.02
2018-02-13T07:29:04.334Z,2.02
2018-02-13T07:30:04.351Z,1.97
2018-02-13T07:31:04.316Z,1.88
2018-02-13T07:32:04.307Z,1.89
2018-02-13T07:33:04.298Z,1.91
2018-02-13T07:34:04.288Z,1.81
2018-02-13T07:35:04.279Z,1.89
2018-02-13T07:36:04.268Z,1.85
2018-02-13T07:37:04.291Z,1.78
2018-02-13T07:38:04.263Z,1.84
2018-02-13T07:39:04.238Z,1.81
2018-02-13T07:40:04.290Z,1.91
2018-02-13T07:41:04.220Z,1.94
2018-02-13T07:42:04.208Z,1.94
2018-02-13T07:43:04.198Z,1.99
2018-02-13T07:44:04.193Z,1.99
2018-02-13T07:45:04.180Z,1.87
2018-02-13T07:46:04.169Z,1.81
2018-02-13T07:47:04.160Z,1.85
2018-02-13T07:48:04.153Z,1.91
2018-02-13T07:49:04.143Z,1.80
2018-02-13T07:50:04.139Z,1.87
2018-02-13T07:51:04.120Z,1.78
2018-02-13T07:52:04.114Z,1.78
2018-02-13T07:53:04.101Z,1.89
2018-02-13T07:54:04.318Z,1.88
2018-02-13T07:55:04.082Z,1.92
2018-02-13T07:56:04.080Z,1.95
2018-02-13T07:57:04.062Z,2.00
2018-02-13T07:58:04.062Z,2.06
2018-02-13T07:59:04.049Z,1.97
2018-02-13T08:00:04.563Z,1.95
2018-02-13T08:01:04.032Z,1.97
2018-02-13T08:02:04.020Z,2.06
2018-02-13T08:03:04.053Z,2.02
2018-02-13T08:04:03.996Z,1.99
2018-02-13T08:05:03.985Z,1.94
2018-02-13T08:06:03.976Z,2.00
2018-02-13T08:07:03.968Z,2.04
2018-02-13T08:08:03.963Z,2.11
2018-02-13T08:09:03.947Z,2.13
2018-02-13T08:10:03.943Z,2.11
2018-02-13T08:11:03.929Z,2.13
2018-02-13T08:12:03.920Z,2.14
2018-02-13T08:13:03.918Z,2.10
2018-02-13T08:14:03.901Z,2.18
2018-02-13T08:15:03.904Z,2.22
2018-02-13T08:16:03.884Z,2.18
2018-02-13T08:17:03.878Z,2.18
2018-02-13T08:18:03.863Z,2.10
2018-02-13T08:19:03.854Z,2.24
2018-02-13T08:20:03.848Z,2.20
2018-02-13T08:21:03.834Z,2.22
2018-02-13T08:22:03.823Z,2.18
2018-02-13T08:23:03.817Z,2.24
2018-02-13T08:24:03.805Z,2.29
2018-02-13T08:25:03.799Z,2.32
2018-02-13T08:26:03.789Z,2.33
2018-02-13T08:27:03.777Z,2.36
2018-02-13T08:28:03.768Z,2.32
2018-02-13T08:29:03.757Z,2.35
2018-02-13T08:30:03.748Z,2.35
2018-02-13T08:31:03.739Z,2.31
2018-02-13T08:32:03.731Z,2.39
2018-02-13T08:33:03.720Z,2.46
2018-02-13T08:34:03.711Z,2.49
2018-02-13T08:35:03.702Z,2.54
2018-02-13T08:36:03.692Z,2.47
2018-02-13T08:37:03.683Z,2.51
2018-02-13T08:38:03.674Z,2.65
2018-02-13T08:39:03.665Z,2.51
2018-02-13T08:40:03.657Z,2.51
2018-02-13T08:41:03.646Z,2.54
2018-02-13T08:42:03.636Z,2.62
2018-02-13T08:43:03.631Z,2.62
2018-02-13T08:44:03.618Z,2.65
2018-02-13T08:45:03.615Z,2.74
2018-02-13T08:46:03.600Z,2.71
2018-02-13T08:47:03.597Z,2.62
2018-02-13T08:48:03.589Z,2.75
2018-02-13T08:49:03.573Z,2.75
2018-02-13T08:50:03.562Z,2.72
2018-02-13T08:51:03.553Z,2.72
2018-02-13T08:52:03.545Z,2.61
2018-02-13T08:53:03.539Z,2.64
2018-02-13T08:54:03.527Z,2.62
2018-02-13T08:55:03.518Z,2.74
2018-02-13T08:56:03.507Z,2.68
2018-02-13T08:57:03.497Z,2.64
2018-02-13T08:58:03.488Z,2.64
2018-02-13T08:59:03.484Z,2.67
2018-02-13T09:00:03.471Z,2.65
2018-02-13T09:01:03.463Z,2.65
2018-02-13T09:02:03.454Z,2.61
2018-02-13T09:03:03.443Z,2.68
2018-02-13T09:04:03.433Z,2.60
2018-02-13T09:05:03.425Z,2.61
2018-02-13T09:06:03.414Z,2.64
2018-02-13T09:07:03.407Z,2.79
2018-02-13T09:08:03.408Z,2.86
2018-02-13T09:09:03.386Z,2.82
2018-02-13T09:10:03.379Z,2.87
2018-02-13T09:11:03.372Z,3.00
2018-02-13T09:12:03.360Z,2.97
2018-02-13T09:13:03.759Z,2.97
2018-02-13T09:14:03.341Z,2.87
2018-02-13T09:15:03.341Z,2.95
2018-02-13T09:16:03.323Z,2.98
2018-02-13T09:17:03.315Z,3.03
2018-02-13T09:18:03.475Z,3.10
2018-02-13T09:19:03.296Z,3.05
2018-02-13T09:20:03.300Z,3.03
2018-02-13T09:21:03.280Z,3.11
2018-02-13T09:22:03.326Z,3.11
2018-02-13T09:23:03.276Z,3.10
2018-02-13T09:24:03.251Z,3.21
2018-02-13T09:25:03.581Z,3.14
2018-02-13T09:26:03.233Z,3.13
2018-02-13T09:27:03.224Z,3.29
2018-02-13T09:28:03.217Z,3.18
2018-02-13T09:29:03.472Z,3.31
2018-02-13T09:30:03.200Z,3.31
2018-02-13T09:31:03.190Z,3.26
2018-02-13T09:32:03.180Z,3.37
2018-02-13T09:33:03.171Z,3.28
2018-02-13T09:34:03.744Z,3.34
2018-02-13T09:35:03.278Z,3.47
2018-02-13T09:36:03.147Z,3.40
2018-02-13T09:37:03.136Z,3.36
2018-02-13T09:38:03.129Z,3.37
2018-02-13T09:39:03.121Z,3.40
2018-02-13T09:40:03.110Z,3.37
2018-02-13T09:41:03.103Z,3.40
2018-02-13T09:42:03.092Z,3.32
2018-02-13T09:43:03.084Z,3.42
2018-02-13T09:44:03.076Z,3.50
2018-02-13T09:45:03.066Z,3.58
2018-02-13T09:46:03.057Z,3.58
2018-02-13T09:47:03.050Z,3.65
2018-02-13T09:48:03.044Z,3.55
2018-02-13T09:49:03.042Z,3.59
2018-02-13T09:50:03.025Z,3.53
2018-02-13T09:51:03.017Z,3.59
2018-02-13T09:52:03.227Z,3.62
2018-02-13T09:53:02.998Z,3.63
2018-02-13T09:54:03.168Z,3.63
2018-02-13T09:55:03.007Z,3.58
2018-02-13T09:56:02.974Z,3.58
2018-02-13T09:57:02.963Z,3.58
2018-02-13T09:58:03.564Z,3.62
2018-02-13T09:59:02.948Z,3.60
2018-02-13T10:00:02.940Z,3.63
2018-02-13T10:01:02.948Z,3.59
2018-02-13T10:02:02.920Z,3.70
2018-02-13T10:03:02.915Z,3.81
2018-02-13T10:04:02.910Z,3.84
2018-02-13T10:05:02.893Z,3.84
2018-02-13T10:06:02.887Z,3.87
2018-02-13T10:07:02.877Z,3.87
2018-02-13T10:08:02.873Z,3.92
2018-02-13T10:09:02.917Z,3.96
2018-02-13T10:10:02.918Z,3.94
2018-02-13T10:11:03.099Z,3.99
2018-02-13T10:12:03.068Z,3.99
2018-02-13T10:13:02.935Z,4.01
2018-02-13T10:14:02.817Z,3.98
2018-02-13T10:15:02.816Z,4.01
2018-02-13T10:16:02.803Z,4.01
2018-02-13T10:17:02.798Z,3.99
2018-02-13T10:18:02.963Z,4.06
2018-02-13T10:19:02.784Z,4.13
2018-02-13T10:20:02.771Z,4.06
2018-02-13T10:21:02.776Z,4.14
2018-02-13T10:22:02.756Z,4.16
2018-02-13T10:23:02.790Z,4.17
2018-02-13T10:24:02.738Z,4.17
2018-02-13T10:25:02.748Z,4.20
2018-02-13T10:26:02.777Z,4.16
2018-02-13T10:27:03.017Z,4.14
2018-02-13T10:28:02.776Z,4.24
2018-02-13T10:29:02.693Z,4.32
2018-02-13T10:30:02.686Z,4.35
2018-02-13T10:31:02.678Z,4.22
2018-02-13T10:32:02.730Z,4.30
2018-02-13T10:33:02.660Z,4.37
2018-02-13T10:34:02.654Z,4.28
2018-02-13T10:35:02.645Z,4.42
2018-02-13T10:36:02.636Z,4.41
2018-02-13T10:37:02.628Z,4.38
2018-02-13T10:38:02.621Z,4.41
2018-02-13T10:39:02.613Z,4.45
2018-02-13T10:40:02.603Z,4.48
2018-02-13T10:41:03.516Z,4.50
2018-02-13T10:42:02.952Z,4.55
2018-02-13T10:43:02.581Z,4.50
2018-02-13T10:44:02.708Z,4.45
2018-02-13T10:45:02.573Z,4.59
2018-02-13T10:46:02.574Z,4.66
2018-02-13T10:47:02.572Z,4.62
2018-02-13T10:48:02.599Z,4.58
2018-02-13T10:49:02.532Z,4.60
2018-02-13T10:50:03.539Z,4.66
2018-02-13T10:51:03.029Z,4.66
2018-02-13T10:52:02.513Z,4.63
2018-02-13T10:53:02.506Z,4.74
2018-02-13T10:54:02.492Z,4.71
2018-02-13T10:55:02.487Z,4.80
2018-02-13T10:56:02.605Z,4.74
2018-02-13T10:57:02.472Z,4.77
2018-02-13T10:58:02.459Z,4.75
2018-02-13T10:59:02.477Z,4.78
2018-02-13T11:00:02.763Z,4.84
2018-02-13T11:01:02.436Z,4.90
2018-02-13T11:02:02.433Z,4.90
2018-02-13T11:03:02.423Z,4.89
2018-02-13T11:04:02.414Z,4.94
2018-02-13T11:05:02.526Z,4.92
2018-02-13T11:06:02.397Z,4.94
2018-02-13T11:07:02.391Z,4.96
2018-02-13T11:08:02.382Z,5.04
2018-02-13T11:09:02.381Z,5.04
2018-02-13T11:10:02.380Z,4.96
2018-02-13T11:11:02.360Z,5.07
2018-02-13T11:12:02.352Z,5.00
2018-02-13T11:13:02.344Z,5.07
2018-02-13T11:14:02.343Z,5.12
2018-02-13T11:15:02.401Z,5.11
2018-02-13T11:16:03.244Z,5.23
2018-02-13T11:17:03.241Z,5.15
2018-02-13T11:18:02.311Z,5.18
2018-02-13T11:19:02.346Z,5.28
2018-02-13T11:20:02.735Z,5.32
2018-02-13T11:21:02.283Z,5.35
2018-02-13T11:22:02.296Z,5.33
2018-02-13T11:23:02.267Z,5.25
2018-02-13T11:24:02.608Z,5.33
2018-02-13T11:25:03.251Z,5.23
2018-02-13T11:26:02.250Z,5.26
2018-02-13T11:27:02.239Z,5.28
2018-02-13T11:28:02.296Z,5.36
2018-02-13T11:29:02.247Z,5.36
2018-02-13T11:30:02.323Z,5.43
2018-02-13T11:31:02.229Z,5.30
2018-02-13T11:32:02.211Z,5.39
2018-02-13T11:33:02.242Z,5.47
2018-02-13T11:34:02.188Z,5.50
2018-02-13T11:35:02.177Z,5.50
2018-02-13T11:36:02.172Z,5.47
2018-02-13T11:37:02.164Z,5.53
2018-02-13T11:38:02.158Z,5.51
2018-02-13T11:39:02.148Z,5.57
2018-02-13T11:40:02.141Z,5.64
2018-02-13T11:41:02.167Z,5.57
2018-02-13T11:42:02.126Z,5.62
2018-02-13T11:43:02.119Z,5.61
2018-02-13T11:44:02.111Z,5.66
2018-02-13T11:45:02.111Z,5.62
2018-02-13T11:46:02.168Z,5.69
2018-02-13T11:47:02.109Z,5.75
2018-02-13T11:48:02.083Z,5.79
2018-02-13T11:49:02.074Z,5.71
2018-02-13T11:50:02.072Z,5.79
2018-02-13T11:51:02.088Z,5.76
2018-02-13T11:52:02.062Z,5.80
2018-02-13T11:53:02.046Z,5.76
2018-02-13T11:54:02.041Z,5.72
2018-02-13T11:55:02.039Z,5.86
2018-02-13T11:56:02.027Z,5.80
2018-02-13T11:57:02.017Z,5.91
2018-02-13T11:58:02.012Z,5.87
2018-02-13T11:59:02.005Z,5.86
2018-02-13T12:00:02.013Z,5.89
2018-02-13T12:01:02.007Z,5.82
2018-02-13T12:02:01.988Z,5.90
2018-02-13T12:03:01.975Z,5.97
2018-02-13T12:04:01.972Z,5.89
2018-02-13T12:05:01.961Z,5.94
2018-02-13T12:06:01.964Z,5.94
2018-02-13T12:07:01.947Z,5.93
2018-02-13T12:08:01.940Z,5.94
2018-02-13T12:09:01.936Z,5.91
2018-02-13T12:10:01.928Z,6.01
2018-02-13T12:11:01.957Z,6.02
2018-02-13T12:12:01.913Z,6.11
2018-02-13T12:13:01.905Z,6.14
2018-02-13T12:14:01.903Z,6.16
2018-02-13T12:15:01.892Z,6.12
2018-02-13T12:16:01.886Z,6.24
2018-02-13T12:17:01.880Z,6.20
2018-02-13T12:18:02.002Z,6.24
2018-02-13T12:19:01.866Z,6.19
2018-02-13T12:20:01.866Z,6.30
2018-02-13T12:21:01.852Z,6.31
2018-02-13T12:22:01.844Z,6.36
2018-02-13T12:23:01.838Z,6.35
2018-02-13T12:24:01.832Z,6.44
2018-02-13T12:25:01.833Z,6.48
2018-02-13T12:26:01.823Z,6.57
2018-02-13T12:27:01.812Z,6.60
2018-02-13T12:28:01.805Z,6.54
2018-02-13T12:29:01.806Z,6.54
2018-02-13T12:30:01.793Z,6.56
2018-02-13T12:31:01.800Z,6.48
2018-02-13T12:32:01.778Z,6.56
2018-02-13T12:33:01.770Z,6.52
2018-02-13T12:34:01.773Z,6.56
2018-02-13T12:35:01.763Z,6.63
2018-02-13T12:36:01.752Z,6.72
2018-02-13T12:37:01.750Z,6.74
2018-02-13T12:38:01.740Z,6.70
2018-02-13T12:39:01.773Z,6.84
2018-02-13T12:40:01.728Z,6.87
2018-02-13T12:41:01.733Z,6.88
2018-02-13T12:42:01.713Z,6.87
2018-02-13T12:43:01.708Z,6.79
2018-02-13T12:44:01.718Z,6.87
2018-02-13T12:45:01.695Z,6.88
2018-02-13T12:46:01.689Z,6.74
2018-02-13T12:47:01.684Z,6.66
2018-02-13T12:48:01.885Z,6.59
2018-02-13T12:49:01.687Z,6.51
2018-02-13T12:50:01.666Z,6.31
2018-02-13T12:51:01.819Z,6.51
2018-02-13T12:52:01.831Z,6.52
2018-02-13T12:53:01.646Z,6.62
2018-02-13T12:54:01.643Z,6.70
2018-02-13T12:55:01.631Z,6.77
2018-02-13T12:56:01.628Z,6.75
2018-02-13T12:57:01.619Z,6.79
2018-02-13T12:58:01.613Z,6.92
2018-02-13T12:59:01.608Z,6.89
2018-02-13T13:00:01.608Z,6.96
2018-02-13T13:01:01.656Z,7.05
2018-02-13T13:02:01.592Z,7.05
2018-02-13T13:03:01.591Z,6.96
2018-02-13T13:04:01.895Z,6.99
2018-02-13T13:05:01.570Z,7.02
2018-02-13T13:06:01.564Z,7.02
2018-02-13T13:07:01.559Z,6.96
2018-02-13T13:08:01.557Z,6.99
2018-02-13T13:09:01.547Z,7.00
2018-02-13T13:10:01.538Z,6.88
2018-02-13T13:11:01.540Z,6.85
2018-02-13T13:12:01.526Z,6.92
2018-02-13T13:13:01.535Z,6.85
2018-02-13T13:14:01.514Z,6.87
2018-02-13T13:15:01.510Z,6.82
2018-02-13T13:16:01.501Z,6.70
2018-02-13T13:17:01.497Z,6.70
2018-02-13T13:18:01.524Z,6.59